Allenstown, New Hampshire
Current Conditions -  °F | °C
As of 12:51 AM on Wednesday 22 Oct 2014 (Local Time) from KCON Reporting Station
Overcast Overcast  
Wind Chill: 45°   Ceiling: 1300
Heat Index: 48°   Visibility: 10mi
Dew Point: 46°   Wind: 7mph
Humidity: 93%   Direction: 350°N
Pressure: 30.03"   Gusts: NA
Location:  43.1606°N, 71.4143°W
Report Text: KCON 220451Z AUTO 35006KT 10SM OVC013 09/08 A3003 RMK AO2 RAE06 SLP171 P0001 T00890078 401220056
Loading
Personal Weather Stations






























Interactive Weather Map
Tropical Storm Tracking
New forecast layout! Learn more

10-Day Weather Forecast

Advertisements
Track Severe Weather on mobile